sensor_id;sensor_type;location;lat;lon;timestamp;P1;durP1;ratioP1;P2;durP2;ratioP2
9459;SDS011;4768;42.664;23.240;2022-08-19T00:00:08;4.47;;;3.73;;
9459;SDS011;4768;42.664;23.240;2022-08-19T00:02:39;4.80;;;4.37;;
9459;SDS011;4768;42.664;23.240;2022-08-19T00:05:07;4.03;;;3.63;;
9459;SDS011;4768;42.664;23.240;2022-08-19T00:07:35;5.27;;;4.00;;
9459;SDS011;4768;42.664;23.240;2022-08-19T00:10:02;4.13;;;3.73;;
9459;SDS011;4768;42.664;23.240;2022-08-19T00:12:30;4.40;;;4.00;;
9459;SDS011;4768;42.664;23.240;2022-08-19T00:14:58;4.23;;;3.83;;
9459;SDS011;4768;42.664;23.240;2022-08-19T00:17:24;4.10;;;3.70;;
9459;SDS011;4768;42.664;23.240;2022-08-19T00:19:51;6.57;;;3.90;;
9459;SDS011;4768;42.664;23.240;2022-08-19T00:22:18;3.53;;;3.23;;
9459;SDS011;4768;42.664;23.240;2022-08-19T00:24:45;4.03;;;3.53;;
9459;SDS011;4768;42.664;23.240;2022-08-19T00:27:12;4.37;;;3.97;;
9459;SDS011;4768;42.664;23.240;2022-08-19T00:29:39;4.17;;;3.60;;
9459;SDS011;4768;42.664;23.240;2022-08-19T00:32:07;5.97;;;3.47;;
9459;SDS011;4768;42.664;23.240;2022-08-19T00:34:33;5.27;;;4.13;;
9459;SDS011;4768;42.664;23.240;2022-08-19T00:37:00;4.00;;;3.60;;
9459;SDS011;4768;42.664;23.240;2022-08-19T00:39:27;5.87;;;3.80;;
9459;SDS011;4768;42.664;23.240;2022-08-19T00:41:55;7.83;;;3.80;;
9459;SDS011;4768;42.664;23.240;2022-08-19T00:44:23;4.30;;;3.90;;
9459;SDS011;4768;42.664;23.240;2022-08-19T00:46:53;4.07;;;3.70;;
9459;SDS011;4768;42.664;23.240;2022-08-19T00:49:24;4.10;;;3.70;;
9459;SDS011;4768;42.664;23.240;2022-08-19T00:51:57;5.00;;;4.00;;
9459;SDS011;4768;42.664;23.240;2022-08-19T00:54:28;7.37;;;3.80;;
9459;SDS011;4768;42.664;23.240;2022-08-19T00:56:56;4.57;;;4.17;;
9459;SDS011;4768;42.664;23.240;2022-08-19T00:59:24;3.77;;;3.47;;
9459;SDS011;4768;42.664;23.240;2022-08-19T01:01:51;4.30;;;3.90;;
9459;SDS011;4768;42.664;23.240;2022-08-19T01:04:18;6.57;;;4.00;;
9459;SDS011;4768;42.664;23.240;2022-08-19T01:06:46;4.77;;;4.27;;
9459;SDS011;4768;42.664;23.240;2022-08-19T01:09:13;4.57;;;3.90;;
9459;SDS011;4768;42.664;23.240;2022-08-19T01:11:41;7.53;;;4.37;;
9459;SDS011;4768;42.664;23.240;2022-08-19T01:14:10;4.97;;;3.97;;
9459;SDS011;4768;42.664;23.240;2022-08-19T01:16:38;4.67;;;4.27;;
9459;SDS011;4768;42.664;23.240;2022-08-19T01:19:09;4.20;;;3.73;;
9459;SDS011;4768;42.664;23.240;2022-08-19T01:21:45;4.80;;;4.27;;
9459;SDS011;4768;42.664;23.240;2022-08-19T01:24:19;4.53;;;3.70;;
9459;SDS011;4768;42.664;23.240;2022-08-19T01:26:46;5.70;;;3.60;;
9459;SDS011;4768;42.664;23.240;2022-08-19T01:29:13;4.33;;;3.93;;
9459;SDS011;4768;42.664;23.240;2022-08-19T01:31:40;5.37;;;3.80;;
9459;SDS011;4768;42.664;23.240;2022-08-19T01:34:07;4.77;;;3.77;;
9459;SDS011;4768;42.664;23.240;2022-08-19T01:36:36;4.63;;;3.83;;
9459;SDS011;4768;42.664;23.240;2022-08-19T01:39:05;4.50;;;4.10;;
9459;SDS011;4768;42.664;23.240;2022-08-19T01:41:36;4.93;;;3.60;;
9459;SDS011;4768;42.664;23.240;2022-08-19T01:44:02;5.23;;;4.73;;
9459;SDS011;4768;42.664;23.240;2022-08-19T01:46:31;5.30;;;3.83;;
9459;SDS011;4768;42.664;23.240;2022-08-19T01:48:58;4.70;;;4.13;;
9459;SDS011;4768;42.664;23.240;2022-08-19T01:51:25;5.93;;;4.00;;
9459;SDS011;4768;42.664;23.240;2022-08-19T01:53:52;7.43;;;4.20;;
9459;SDS011;4768;42.664;23.240;2022-08-19T01:56:19;5.07;;;4.00;;
9459;SDS011;4768;42.664;23.240;2022-08-19T01:58:49;4.70;;;4.20;;
9459;SDS011;4768;42.664;23.240;2022-08-19T02:01:20;4.20;;;3.80;;
9459;SDS011;4768;42.664;23.240;2022-08-19T02:03:47;5.17;;;4.67;;
9459;SDS011;4768;42.664;23.240;2022-08-19T02:06:13;4.67;;;4.13;;
9459;SDS011;4768;42.664;23.240;2022-08-19T02:08:42;5.37;;;4.27;;
9459;SDS011;4768;42.664;23.240;2022-08-19T02:11:17;6.97;;;4.40;;
9459;SDS011;4768;42.664;23.240;2022-08-19T02:13:45;5.20;;;4.70;;
9459;SDS011;4768;42.664;23.240;2022-08-19T02:16:14;8.27;;;4.53;;
9459;SDS011;4768;42.664;23.240;2022-08-19T02:18:40;5.27;;;4.50;;
9459;SDS011;4768;42.664;23.240;2022-08-19T02:21:07;5.30;;;4.37;;
9459;SDS011;4768;42.664;23.240;2022-08-19T02:23:34;5.97;;;4.30;;
9459;SDS011;4768;42.664;23.240;2022-08-19T02:26:00;5.17;;;4.57;;
9459;SDS011;4768;42.664;23.240;2022-08-19T02:28:27;6.27;;;4.87;;
9459;SDS011;4768;42.664;23.240;2022-08-19T02:30:54;10.07;;;4.40;;
9459;SDS011;4768;42.664;23.240;2022-08-19T02:33:22;4.73;;;4.33;;
9459;SDS011;4768;42.664;23.240;2022-08-19T02:35:49;5.00;;;4.50;;
9459;SDS011;4768;42.664;23.240;2022-08-19T02:38:15;4.63;;;4.23;;
9459;SDS011;4768;42.664;23.240;2022-08-19T02:40:51;5.43;;;4.60;;
9459;SDS011;4768;42.664;23.240;2022-08-19T02:43:19;6.23;;;4.17;;
9459;SDS011;4768;42.664;23.240;2022-08-19T02:45:46;5.47;;;4.43;;
9459;SDS011;4768;42.664;23.240;2022-08-19T02:48:14;6.27;;;4.83;;
9459;SDS011;4768;42.664;23.240;2022-08-19T02:50:43;7.33;;;4.80;;
9459;SDS011;4768;42.664;23.240;2022-08-19T02:53:10;8.33;;;5.13;;
9459;SDS011;4768;42.664;23.240;2022-08-19T02:55:42;5.33;;;4.83;;
9459;SDS011;4768;42.664;23.240;2022-08-19T02:58:10;8.00;;;5.17;;
9459;SDS011;4768;42.664;23.240;2022-08-19T03:00:40;6.23;;;5.23;;
9459;SDS011;4768;42.664;23.240;2022-08-19T03:03:08;5.70;;;4.83;;
9459;SDS011;4768;42.664;23.240;2022-08-19T03:05:35;6.13;;;4.90;;
9459;SDS011;4768;42.664;23.240;2022-08-19T03:08:03;5.17;;;4.67;;
9459;SDS011;4768;42.664;23.240;2022-08-19T03:10:31;5.43;;;4.80;;
9459;SDS011;4768;42.664;23.240;2022-08-19T03:12:58;8.63;;;5.90;;
9459;SDS011;4768;42.664;23.240;2022-08-19T03:15:25;7.13;;;5.30;;
9459;SDS011;4768;42.664;23.240;2022-08-19T03:17:52;6.70;;;5.70;;
9459;SDS011;4768;42.664;23.240;2022-08-19T03:20:19;7.37;;;5.17;;
9459;SDS011;4768;42.664;23.240;2022-08-19T03:22:46;5.60;;;5.10;;
9459;SDS011;4768;42.664;23.240;2022-08-19T03:25:14;8.40;;;5.07;;
9459;SDS011;4768;42.664;23.240;2022-08-19T03:27:41;5.47;;;4.77;;
9459;SDS011;4768;42.664;23.240;2022-08-19T03:30:09;6.03;;;4.33;;
9459;SDS011;4768;42.664;23.240;2022-08-19T03:32:37;5.07;;;4.57;;
9459;SDS011;4768;42.664;23.240;2022-08-19T03:35:03;7.73;;;5.20;;
9459;SDS011;4768;42.664;23.240;2022-08-19T03:37:31;5.53;;;4.93;;
9459;SDS011;4768;42.664;23.240;2022-08-19T03:39:57;5.10;;;4.60;;
9459;SDS011;4768;42.664;23.240;2022-08-19T03:42:26;5.63;;;5.13;;
9459;SDS011;4768;42.664;23.240;2022-08-19T03:44:52;5.27;;;4.77;;
9459;SDS011;4768;42.664;23.240;2022-08-19T03:47:19;5.93;;;4.63;;
9459;SDS011;4768;42.664;23.240;2022-08-19T03:49:46;6.17;;;4.60;;
9459;SDS011;4768;42.664;23.240;2022-08-19T03:52:13;7.87;;;4.67;;
9459;SDS011;4768;42.664;23.240;2022-08-19T03:54:40;4.67;;;4.27;;
9459;SDS011;4768;42.664;23.240;2022-08-19T03:57:07;5.93;;;4.37;;
9459;SDS011;4768;42.664;23.240;2022-08-19T03:59:36;6.67;;;4.83;;
9459;SDS011;4768;42.664;23.240;2022-08-19T04:02:06;5.87;;;4.13;;
9459;SDS011;4768;42.664;23.240;2022-08-19T04:04:35;5.27;;;4.77;;
9459;SDS011;4768;42.664;23.240;2022-08-19T04:07:02;5.00;;;4.53;;
9459;SDS011;4768;42.664;23.240;2022-08-19T04:09:29;6.83;;;4.87;;
9459;SDS011;4768;42.664;23.240;2022-08-19T04:11:56;7.03;;;5.13;;
9459;SDS011;4768;42.664;23.240;2022-08-19T04:14:24;6.13;;;5.17;;
9459;SDS011;4768;42.664;23.240;2022-08-19T04:16:54;5.27;;;4.67;;
9459;SDS011;4768;42.664;23.240;2022-08-19T04:19:22;5.20;;;4.70;;
9459;SDS011;4768;42.664;23.240;2022-08-19T04:21:49;5.43;;;4.90;;
9459;SDS011;4768;42.664;23.240;2022-08-19T04:24:19;6.33;;;4.87;;
9459;SDS011;4768;42.664;23.240;2022-08-19T04:26:47;8.00;;;5.27;;
9459;SDS011;4768;42.664;23.240;2022-08-19T04:29:15;5.50;;;4.93;;
9459;SDS011;4768;42.664;23.240;2022-08-19T04:31:43;5.60;;;5.10;;
9459;SDS011;4768;42.664;23.240;2022-08-19T04:34:13;8.37;;;5.40;;
9459;SDS011;4768;42.664;23.240;2022-08-19T04:36:42;10.60;;;5.10;;
9459;SDS011;4768;42.664;23.240;2022-08-19T04:39:11;8.33;;;5.23;;
9459;SDS011;4768;42.664;23.240;2022-08-19T04:41:39;12.40;;;5.37;;
9459;SDS011;4768;42.664;23.240;2022-08-19T04:44:24;7.87;;;5.47;;
9459;SDS011;4768;42.664;23.240;2022-08-19T04:46:51;6.47;;;5.33;;
9459;SDS011;4768;42.664;23.240;2022-08-19T04:49:20;6.17;;;5.30;;
9459;SDS011;4768;42.664;23.240;2022-08-19T04:51:48;6.10;;;5.33;;
9459;SDS011;4768;42.664;23.240;2022-08-19T04:54:18;6.93;;;5.33;;
9459;SDS011;4768;42.664;23.240;2022-08-19T04:56:47;7.90;;;5.53;;
9459;SDS011;4768;42.664;23.240;2022-08-19T04:59:16;6.80;;;5.17;;
9459;SDS011;4768;42.664;23.240;2022-08-19T05:01:44;5.30;;;4.80;;
9459;SDS011;4768;42.664;23.240;2022-08-19T05:04:15;10.33;;;5.00;;
9459;SDS011;4768;42.664;23.240;2022-08-19T05:06:44;10.67;;;4.93;;
9459;SDS011;4768;42.664;23.240;2022-08-19T05:09:12;10.20;;;5.80;;
9459;SDS011;4768;42.664;23.240;2022-08-19T05:11:39;5.93;;;5.03;;
9459;SDS011;4768;42.664;23.240;2022-08-19T05:14:06;6.57;;;5.37;;
9459;SDS011;4768;42.664;23.240;2022-08-19T05:16:33;11.70;;;5.80;;
9459;SDS011;4768;42.664;23.240;2022-08-19T05:19:01;10.23;;;6.47;;
9459;SDS011;4768;42.664;23.240;2022-08-19T05:21:46;16.97;;;6.53;;
9459;SDS011;4768;42.664;23.240;2022-08-19T05:24:30;10.90;;;6.60;;
9459;SDS011;4768;42.664;23.240;2022-08-19T05:26:59;9.50;;;5.73;;
9459;SDS011;4768;42.664;23.240;2022-08-19T05:29:28;11.73;;;6.37;;
9459;SDS011;4768;42.664;23.240;2022-08-19T05:31:56;14.15;;;6.65;;
9459;SDS011;4768;42.664;23.240;2022-08-19T05:34:24;10.15;;;5.78;;
9459;SDS011;4768;42.664;23.240;2022-08-19T05:36:54;17.80;;;6.47;;
9459;SDS011;4768;42.664;23.240;2022-08-19T05:39:24;7.03;;;5.72;;
9459;SDS011;4768;42.664;23.240;2022-08-19T05:41:53;10.10;;;5.35;;
9459;SDS011;4768;42.664;23.240;2022-08-19T05:44:22;8.35;;;5.78;;
9459;SDS011;4768;42.664;23.240;2022-08-19T05:46:50;8.32;;;5.30;;
9459;SDS011;4768;42.664;23.240;2022-08-19T05:49:19;13.07;;;5.90;;
9459;SDS011;4768;42.664;23.240;2022-08-19T05:51:47;9.80;;;6.22;;
9459;SDS011;4768;42.664;23.240;2022-08-19T05:54:16;9.00;;;6.68;;
9459;SDS011;4768;42.664;23.240;2022-08-19T05:56:44;11.93;;;6.35;;
9459;SDS011;4768;42.664;23.240;2022-08-19T05:59:13;10.98;;;7.15;;
9459;SDS011;4768;42.664;23.240;2022-08-19T06:01:42;14.05;;;6.80;;
9459;SDS011;4768;42.664;23.240;2022-08-19T06:04:11;14.38;;;7.20;;
9459;SDS011;4768;42.664;23.240;2022-08-19T06:06:39;11.07;;;8.05;;
9459;SDS011;4768;42.664;23.240;2022-08-19T06:09:06;14.90;;;7.15;;
9459;SDS011;4768;42.664;23.240;2022-08-19T06:11:37;9.27;;;7.45;;
9459;SDS011;4768;42.664;23.240;2022-08-19T06:14:06;16.40;;;7.70;;
9459;SDS011;4768;42.664;23.240;2022-08-19T06:16:35;8.13;;;7.28;;
9459;SDS011;4768;42.664;23.240;2022-08-19T06:19:04;13.05;;;7.53;;
9459;SDS011;4768;42.664;23.240;2022-08-19T06:21:33;15.13;;;6.93;;
9459;SDS011;4768;42.664;23.240;2022-08-19T06:24:03;16.95;;;7.53;;
9459;SDS011;4768;42.664;23.240;2022-08-19T06:26:31;16.92;;;6.65;;
9459;SDS011;4768;42.664;23.240;2022-08-19T06:29:02;15.57;;;8.05;;
9459;SDS011;4768;42.664;23.240;2022-08-19T06:31:31;10.45;;;7.43;;
9459;SDS011;4768;42.664;23.240;2022-08-19T06:33:58;10.73;;;6.25;;
9459;SDS011;4768;42.664;23.240;2022-08-19T06:36:27;7.85;;;6.50;;
9459;SDS011;4768;42.664;23.240;2022-08-19T06:38:56;16.02;;;7.38;;
9459;SDS011;4768;42.664;23.240;2022-08-19T06:41:23;12.52;;;7.82;;
9459;SDS011;4768;42.664;23.240;2022-08-19T06:43:50;11.98;;;8.10;;
9459;SDS011;4768;42.664;23.240;2022-08-19T06:46:18;11.82;;;7.88;;
9459;SDS011;4768;42.664;23.240;2022-08-19T06:48:45;13.27;;;7.60;;
9459;SDS011;4768;42.664;23.240;2022-08-19T06:51:13;13.40;;;7.85;;
9459;SDS011;4768;42.664;23.240;2022-08-19T06:53:43;13.45;;;8.15;;
9459;SDS011;4768;42.664;23.240;2022-08-19T06:56:12;16.35;;;7.65;;
9459;SDS011;4768;42.664;23.240;2022-08-19T06:58:39;15.23;;;8.93;;
9459;SDS011;4768;42.664;23.240;2022-08-19T07:01:06;12.75;;;8.80;;
9459;SDS011;4768;42.664;23.240;2022-08-19T07:03:36;18.33;;;9.05;;
9459;SDS011;4768;42.664;23.240;2022-08-19T07:06:05;13.10;;;8.77;;
9459;SDS011;4768;42.664;23.240;2022-08-19T07:08:34;12.52;;;9.18;;
9459;SDS011;4768;42.664;23.240;2022-08-19T07:11:04;15.20;;;9.63;;
9459;SDS011;4768;42.664;23.240;2022-08-19T07:13:32;14.07;;;10.18;;
9459;SDS011;4768;42.664;23.240;2022-08-19T07:16:02;16.10;;;8.88;;
9459;SDS011;4768;42.664;23.240;2022-08-19T07:18:30;15.82;;;8.77;;
9459;SDS011;4768;42.664;23.240;2022-08-19T07:21:03;12.65;;;8.15;;
9459;SDS011;4768;42.664;23.240;2022-08-19T07:23:30;16.55;;;8.38;;
9459;SDS011;4768;42.664;23.240;2022-08-19T07:25:57;11.90;;;8.60;;
9459;SDS011;4768;42.664;23.240;2022-08-19T07:28:24;13.57;;;8.18;;
9459;SDS011;4768;42.664;23.240;2022-08-19T07:30:51;11.27;;;8.30;;
9459;SDS011;4768;42.664;23.240;2022-08-19T07:33:18;13.27;;;8.65;;
9459;SDS011;4768;42.664;23.240;2022-08-19T07:35:44;11.75;;;8.30;;
9459;SDS011;4768;42.664;23.240;2022-08-19T07:38:12;10.70;;;8.60;;
9459;SDS011;4768;42.664;23.240;2022-08-19T07:40:39;14.43;;;7.93;;
9459;SDS011;4768;42.664;23.240;2022-08-19T07:43:07;12.57;;;7.75;;
9459;SDS011;4768;42.664;23.240;2022-08-19T07:45:33;11.25;;;7.43;;
9459;SDS011;4768;42.664;23.240;2022-08-19T07:48:00;12.20;;;8.10;;
9459;SDS011;4768;42.664;23.240;2022-08-19T07:50:28;13.45;;;7.68;;
9459;SDS011;4768;42.664;23.240;2022-08-19T07:52:55;17.75;;;8.20;;
9459;SDS011;4768;42.664;23.240;2022-08-19T07:55:24;11.88;;;6.47;;
9459;SDS011;4768;42.664;23.240;2022-08-19T07:57:52;9.00;;;7.18;;
9459;SDS011;4768;42.664;23.240;2022-08-19T08:00:19;9.90;;;6.70;;
9459;SDS011;4768;42.664;23.240;2022-08-19T08:02:46;14.05;;;6.78;;
9459;SDS011;4768;42.664;23.240;2022-08-19T08:05:13;12.05;;;6.65;;
9459;SDS011;4768;42.664;23.240;2022-08-19T08:07:57;7.72;;;6.22;;
9459;SDS011;4768;42.664;23.240;2022-08-19T08:10:43;11.90;;;5.25;;
9459;SDS011;4768;42.664;23.240;2022-08-19T08:13:10;7.38;;;6.20;;
9459;SDS011;4768;42.664;23.240;2022-08-19T08:15:37;7.82;;;5.35;;
9459;SDS011;4768;42.664;23.240;2022-08-19T08:18:04;11.43;;;5.80;;
9459;SDS011;4768;42.664;23.240;2022-08-19T08:20:31;12.13;;;5.88;;
9459;SDS011;4768;42.664;23.240;2022-08-19T08:22:58;9.93;;;6.20;;
9459;SDS011;4768;42.664;23.240;2022-08-19T08:25:43;6.30;;;5.70;;
9459;SDS011;4768;42.664;23.240;2022-08-19T08:28:10;7.97;;;5.70;;
9459;SDS011;4768;42.664;23.240;2022-08-19T08:30:37;8.88;;;5.55;;
9459;SDS011;4768;42.664;23.240;2022-08-19T08:33:06;7.38;;;5.78;;
9459;SDS011;4768;42.664;23.240;2022-08-19T08:35:34;5.22;;;4.60;;
9459;SDS011;4768;42.664;23.240;2022-08-19T08:38:01;11.02;;;5.80;;
9459;SDS011;4768;42.664;23.240;2022-08-19T08:40:36;8.93;;;4.93;;
9459;SDS011;4768;42.664;23.240;2022-08-19T08:43:11;11.05;;;4.57;;
9459;SDS011;4768;42.664;23.240;2022-08-19T08:45:47;4.00;;;3.60;;
9459;SDS011;4768;42.664;23.240;2022-08-19T08:48:19;4.10;;;3.70;;
9459;SDS011;4768;42.664;23.240;2022-08-19T08:50:49;6.38;;;4.55;;
9459;SDS011;4768;42.664;23.240;2022-08-19T08:53:20;8.95;;;4.45;;
9459;SDS011;4768;42.664;23.240;2022-08-19T08:55:48;7.57;;;4.22;;
9459;SDS011;4768;42.664;23.240;2022-08-19T08:58:17;9.90;;;4.43;;
9459;SDS011;4768;42.664;23.240;2022-08-19T09:00:51;8.90;;;4.50;;
9459;SDS011;4768;42.664;23.240;2022-08-19T09:03:19;5.00;;;4.07;;
9459;SDS011;4768;42.664;23.240;2022-08-19T09:05:50;5.38;;;4.15;;
9459;SDS011;4768;42.664;23.240;2022-08-19T09:08:27;7.25;;;4.28;;
9459;SDS011;4768;42.664;23.240;2022-08-19T09:11:06;6.55;;;3.90;;
9459;SDS011;4768;42.664;23.240;2022-08-19T09:13:40;6.00;;;4.32;;
9459;SDS011;4768;42.664;23.240;2022-08-19T09:16:16;5.78;;;4.50;;
9459;SDS011;4768;42.664;23.240;2022-08-19T09:18:46;6.35;;;3.25;;
9459;SDS011;4768;42.664;23.240;2022-08-19T09:21:17;4.03;;;3.50;;
9459;SDS011;4768;42.664;23.240;2022-08-19T09:23:45;3.60;;;3.30;;
9459;SDS011;4768;42.664;23.240;2022-08-19T09:26:14;3.75;;;3.22;;
9459;SDS011;4768;42.664;23.240;2022-08-19T09:28:45;7.80;;;4.75;;
9459;SDS011;4768;42.664;23.240;2022-08-19T09:31:14;3.40;;;3.10;;
9459;SDS011;4768;42.664;23.240;2022-08-19T09:33:43;6.72;;;3.00;;
9459;SDS011;4768;42.664;23.240;2022-08-19T09:36:11;4.20;;;3.20;;
9459;SDS011;4768;42.664;23.240;2022-08-19T09:38:39;5.63;;;3.88;;
9459;SDS011;4768;42.664;23.240;2022-08-19T09:41:07;5.57;;;3.72;;
9459;SDS011;4768;42.664;23.240;2022-08-19T09:43:37;4.35;;;3.95;;
9459;SDS011;4768;42.664;23.240;2022-08-19T09:46:06;4.82;;;3.70;;
9459;SDS011;4768;42.664;23.240;2022-08-19T09:48:34;7.40;;;3.75;;
9459;SDS011;4768;42.664;23.240;2022-08-19T09:51:02;4.50;;;3.75;;
9459;SDS011;4768;42.664;23.240;2022-08-19T09:53:30;4.22;;;3.47;;
9459;SDS011;4768;42.664;23.240;2022-08-19T09:55:56;4.55;;;3.78;;
9459;SDS011;4768;42.664;23.240;2022-08-19T09:58:23;3.85;;;3.53;;
9459;SDS011;4768;42.664;23.240;2022-08-19T10:00:54;5.90;;;4.30;;
9459;SDS011;4768;42.664;23.240;2022-08-19T10:03:22;6.88;;;4.18;;
9459;SDS011;4768;42.664;23.240;2022-08-19T10:05:50;4.05;;;3.20;;
9459;SDS011;4768;42.664;23.240;2022-08-19T10:08:17;4.90;;;3.10;;
9459;SDS011;4768;42.664;23.240;2022-08-19T10:10:46;6.00;;;3.22;;
9459;SDS011;4768;42.664;23.240;2022-08-19T10:13:14;3.25;;;3.00;;
9459;SDS011;4768;42.664;23.240;2022-08-19T10:15:42;4.90;;;3.40;;
9459;SDS011;4768;42.664;23.240;2022-08-19T10:18:09;4.20;;;2.88;;
9459;SDS011;4768;42.664;23.240;2022-08-19T10:20:37;9.52;;;3.55;;
9459;SDS011;4768;42.664;23.240;2022-08-19T10:23:06;7.10;;;5.25;;
9459;SDS011;4768;42.664;23.240;2022-08-19T10:25:33;4.90;;;3.22;;
9459;SDS011;4768;42.664;23.240;2022-08-19T10:28:00;7.70;;;4.00;;
9459;SDS011;4768;42.664;23.240;2022-08-19T10:30:27;3.80;;;3.30;;
9459;SDS011;4768;42.664;23.240;2022-08-19T10:32:54;7.25;;;3.90;;
9459;SDS011;4768;42.664;23.240;2022-08-19T10:35:21;5.65;;;3.78;;
9459;SDS011;4768;42.664;23.240;2022-08-19T10:37:49;5.32;;;3.50;;
9459;SDS011;4768;42.664;23.240;2022-08-19T10:40:15;6.72;;;3.67;;
9459;SDS011;4768;42.664;23.240;2022-08-19T10:42:42;5.35;;;3.85;;
9459;SDS011;4768;42.664;23.240;2022-08-19T10:45:10;10.02;;;6.50;;
9459;SDS011;4768;42.664;23.240;2022-08-19T10:47:36;4.70;;;3.70;;
9459;SDS011;4768;42.664;23.240;2022-08-19T10:50:03;4.00;;;3.65;;
9459;SDS011;4768;42.664;23.240;2022-08-19T10:52:50;4.45;;;4.03;;
9459;SDS011;4768;42.664;23.240;2022-08-19T10:55:18;6.68;;;3.65;;
9459;SDS011;4768;42.664;23.240;2022-08-19T10:58:03;8.15;;;3.85;;
9459;SDS011;4768;42.664;23.240;2022-08-19T11:00:35;4.60;;;4.13;;
9459;SDS011;4768;42.664;23.240;2022-08-19T11:03:02;5.95;;;4.03;;
9459;SDS011;4768;42.664;23.240;2022-08-19T11:05:29;5.45;;;4.45;;
9459;SDS011;4768;42.664;23.240;2022-08-19T11:07:57;6.93;;;4.03;;
9459;SDS011;4768;42.664;23.240;2022-08-19T11:10:24;5.55;;;3.88;;
9459;SDS011;4768;42.664;23.240;2022-08-19T11:12:51;5.70;;;4.07;;
9459;SDS011;4768;42.664;23.240;2022-08-19T11:15:20;4.40;;;3.95;;
9459;SDS011;4768;42.664;23.240;2022-08-19T11:17:47;10.68;;;4.20;;
9459;SDS011;4768;42.664;23.240;2022-08-19T11:20:14;10.68;;;4.18;;
9459;SDS011;4768;42.664;23.240;2022-08-19T11:22:41;5.28;;;4.00;;
9459;SDS011;4768;42.664;23.240;2022-08-19T11:25:10;8.30;;;4.20;;
9459;SDS011;4768;42.664;23.240;2022-08-19T11:27:38;4.50;;;4.10;;
9459;SDS011;4768;42.664;23.240;2022-08-19T11:30:07;4.75;;;4.35;;
9459;SDS011;4768;42.664;23.240;2022-08-19T11:32:35;6.30;;;3.90;;
9459;SDS011;4768;42.664;23.240;2022-08-19T11:35:02;4.20;;;3.80;;
9459;SDS011;4768;42.664;23.240;2022-08-19T11:37:29;7.43;;;3.97;;
9459;SDS011;4768;42.664;23.240;2022-08-19T11:39:55;5.95;;;4.53;;
9459;SDS011;4768;42.664;23.240;2022-08-19T11:42:23;6.55;;;4.13;;
9459;SDS011;4768;42.664;23.240;2022-08-19T11:45:08;3.88;;;3.58;;
9459;SDS011;4768;42.664;23.240;2022-08-19T11:47:35;6.43;;;3.88;;
9459;SDS011;4768;42.664;23.240;2022-08-19T11:50:04;4.65;;;4.05;;
9459;SDS011;4768;42.664;23.240;2022-08-19T11:52:31;4.60;;;4.18;;
9459;SDS011;4768;42.664;23.240;2022-08-19T11:54:58;7.47;;;3.60;;
9459;SDS011;4768;42.664;23.240;2022-08-19T11:57:26;4.28;;;3.85;;
9459;SDS011;4768;42.664;23.240;2022-08-19T11:59:53;7.68;;;4.03;;
9459;SDS011;4768;42.664;23.240;2022-08-19T12:02:19;6.85;;;4.20;;
9459;SDS011;4768;42.664;23.240;2022-08-19T12:04:46;7.20;;;4.05;;
9459;SDS011;4768;42.664;23.240;2022-08-19T12:07:13;7.20;;;4.22;;
9459;SDS011;4768;42.664;23.240;2022-08-19T12:09:40;7.53;;;4.15;;
9459;SDS011;4768;42.664;23.240;2022-08-19T12:12:07;5.22;;;3.85;;
9459;SDS011;4768;42.664;23.240;2022-08-19T12:14:36;4.38;;;3.65;;
9459;SDS011;4768;42.664;23.240;2022-08-19T12:17:03;6.53;;;4.28;;
9459;SDS011;4768;42.664;23.240;2022-08-19T12:19:32;8.60;;;4.10;;
9459;SDS011;4768;42.664;23.240;2022-08-19T12:22:00;6.95;;;4.38;;
9459;SDS011;4768;42.664;23.240;2022-08-19T12:24:29;4.95;;;3.65;;
9459;SDS011;4768;42.664;23.240;2022-08-19T12:26:57;7.15;;;3.83;;
9459;SDS011;4768;42.664;23.240;2022-08-19T12:29:26;8.18;;;3.72;;
9459;SDS011;4768;42.664;23.240;2022-08-19T12:31:56;4.20;;;3.80;;
9459;SDS011;4768;42.664;23.240;2022-08-19T12:34:26;6.80;;;3.90;;
9459;SDS011;4768;42.664;23.240;2022-08-19T12:36:55;9.02;;;4.03;;
9459;SDS011;4768;42.664;23.240;2022-08-19T12:39:22;4.45;;;3.90;;
9459;SDS011;4768;42.664;23.240;2022-08-19T12:41:48;6.55;;;4.50;;
9459;SDS011;4768;42.664;23.240;2022-08-19T12:44:16;4.70;;;4.30;;
9459;SDS011;4768;42.664;23.240;2022-08-19T12:46:43;4.88;;;4.03;;
9459;SDS011;4768;42.664;23.240;2022-08-19T12:49:11;6.57;;;4.55;;
9459;SDS011;4768;42.664;23.240;2022-08-19T12:51:37;8.82;;;3.92;;
9459;SDS011;4768;42.664;23.240;2022-08-19T12:54:04;4.35;;;3.80;;
9459;SDS011;4768;42.664;23.240;2022-08-19T12:56:31;5.05;;;3.80;;
9459;SDS011;4768;42.664;23.240;2022-08-19T12:59:00;6.13;;;4.13;;
9459;SDS011;4768;42.664;23.240;2022-08-19T13:01:27;7.45;;;4.07;;
9459;SDS011;4768;42.664;23.240;2022-08-19T13:03:57;10.27;;;4.30;;
9459;SDS011;4768;42.664;23.240;2022-08-19T13:06:26;6.20;;;3.92;;
9459;SDS011;4768;42.664;23.240;2022-08-19T13:08:53;4.40;;;4.00;;
9459;SDS011;4768;42.664;23.240;2022-08-19T13:11:20;5.70;;;3.90;;
9459;SDS011;4768;42.664;23.240;2022-08-19T13:13:49;5.45;;;3.92;;
9459;SDS011;4768;42.664;23.240;2022-08-19T13:16:17;5.63;;;3.70;;
9459;SDS011;4768;42.664;23.240;2022-08-19T13:18:45;5.75;;;3.85;;
9459;SDS011;4768;42.664;23.240;2022-08-19T13:21:13;10.65;;;4.53;;
9459;SDS011;4768;42.664;23.240;2022-08-19T13:23:41;4.55;;;3.88;;
9459;SDS011;4768;42.664;23.240;2022-08-19T13:26:09;4.40;;;3.70;;
9459;SDS011;4768;42.664;23.240;2022-08-19T13:28:37;5.85;;;3.70;;
9459;SDS011;4768;42.664;23.240;2022-08-19T13:31:22;5.15;;;3.95;;
9459;SDS011;4768;42.664;23.240;2022-08-19T13:34:08;4.60;;;3.92;;
9459;SDS011;4768;42.664;23.240;2022-08-19T13:36:35;4.53;;;3.78;;
9459;SDS011;4768;42.664;23.240;2022-08-19T13:39:05;6.45;;;4.22;;
9459;SDS011;4768;42.664;23.240;2022-08-19T13:41:34;8.32;;;4.22;;
9459;SDS011;4768;42.664;23.240;2022-08-19T13:44:01;5.70;;;3.97;;
9459;SDS011;4768;42.664;23.240;2022-08-19T13:46:28;6.30;;;3.60;;
9459;SDS011;4768;42.664;23.240;2022-08-19T13:48:55;5.40;;;4.13;;
9459;SDS011;4768;42.664;23.240;2022-08-19T13:51:23;4.72;;;3.60;;
9459;SDS011;4768;42.664;23.240;2022-08-19T13:53:50;8.82;;;4.32;;
9459;SDS011;4768;42.664;23.240;2022-08-19T13:56:18;5.50;;;4.07;;
9459;SDS011;4768;42.664;23.240;2022-08-19T13:58:46;5.13;;;3.60;;
9459;SDS011;4768;42.664;23.240;2022-08-19T14:01:12;4.45;;;3.60;;
9459;SDS011;4768;42.664;23.240;2022-08-19T14:03:45;5.95;;;4.03;;
9459;SDS011;4768;42.664;23.240;2022-08-19T14:06:12;6.75;;;4.20;;
9459;SDS011;4768;42.664;23.240;2022-08-19T14:08:38;4.10;;;3.70;;
9459;SDS011;4768;42.664;23.240;2022-08-19T14:11:06;5.38;;;4.07;;
9459;SDS011;4768;42.664;23.240;2022-08-19T14:13:35;4.68;;;4.13;;
9459;SDS011;4768;42.664;23.240;2022-08-19T14:16:05;7.90;;;4.05;;
9459;SDS011;4768;42.664;23.240;2022-08-19T14:18:34;6.00;;;4.60;;
9459;SDS011;4768;42.664;23.240;2022-08-19T14:21:01;5.28;;;4.03;;
9459;SDS011;4768;42.664;23.240;2022-08-19T14:23:28;5.47;;;4.20;;
9459;SDS011;4768;42.664;23.240;2022-08-19T14:26:02;6.28;;;3.63;;
9459;SDS011;4768;42.664;23.240;2022-08-19T14:28:29;6.28;;;4.20;;
9459;SDS011;4768;42.664;23.240;2022-08-19T14:30:57;6.93;;;4.00;;
9459;SDS011;4768;42.664;23.240;2022-08-19T14:33:24;5.35;;;4.43;;
9459;SDS011;4768;42.664;23.240;2022-08-19T14:35:51;6.57;;;3.88;;
9459;SDS011;4768;42.664;23.240;2022-08-19T14:38:18;13.75;;;3.92;;
9459;SDS011;4768;42.664;23.240;2022-08-19T14:40:45;6.15;;;4.18;;
9459;SDS011;4768;42.664;23.240;2022-08-19T14:43:11;6.15;;;4.03;;
9459;SDS011;4768;42.664;23.240;2022-08-19T14:45:39;6.30;;;4.32;;
9459;SDS011;4768;42.664;23.240;2022-08-19T14:48:07;6.13;;;4.18;;
9459;SDS011;4768;42.664;23.240;2022-08-19T14:50:35;4.72;;;4.32;;
9459;SDS011;4768;42.664;23.240;2022-08-19T14:53:04;8.82;;;4.45;;
9459;SDS011;4768;42.664;23.240;2022-08-19T14:55:32;7.45;;;3.97;;
9459;SDS011;4768;42.664;23.240;2022-08-19T14:58:00;8.05;;;4.20;;
9459;SDS011;4768;42.664;23.240;2022-08-19T15:00:27;10.27;;;4.18;;
9459;SDS011;4768;42.664;23.240;2022-08-19T15:02:54;7.63;;;4.38;;
9459;SDS011;4768;42.664;23.240;2022-08-19T15:05:23;7.78;;;4.22;;